aviador You're here:

KPOB Decoded Metar

FAYETTEVILLE in NC, USA
Report Time2018-05-23 05:56:00
UTC Time2018-05-23 06:52:05
Flight Rules vfr VFR
Wind260° at 04 kt
W.Decomp.*RWY 23: 3.2 kt HW 2.4 kt RCW
W.Rank260° ranks 7
Current wind is below 260° avg. (6.3)
Visibility9999 m
Phenomena:N/A
Clouds:N/A
Expected CloudBase > 1,200 ft AGL from Temp-Dew spread
CeilingNone
Temp22°C (ISA +7)
Dew Point19°C (83% RH)
QNH1018 hPa
Density Alt1,204 ft
Elevation217 ft
Report Wrong Elevation
Raw Report
KPOB 230556Z AUTO 26004KT 10SM CLR 22/19 A3006 RMK AO2 SLP180
T02190194 10269 20219 57009 $=

Extra information for KPOB:More info

Metar Taf Metar & Taf Last 4 Metars F.Rules Stats Wind Profile Meteogram Temp Stats Airport Information Weather charts Add Link Nearby VenuesMetar ALERT Operation Metar Decoded Social comments

AIRNAV info for KPOB